Andover, KS

9:53 AM CDT on August 27, 2014 (GMT -0500)
The Highlands | Change Station
CLOSE
Current Station
Personal Weather Station
Location: Andover, KS
Elevation: 1326 ft
Nearby Weather Stations

Elev 1326 ft 37.68 °N, 97.12 °W | Updated 0 second ago

Clear
Clear
83.7 °F
Feels Like 86 °F
N
2.9
Wind Variable Wind from NW
Gusts 6.0 mph

Today
High -- | Low -- °F
--% Chance of Precip.
Yesterday
High -- | Low -- °F
Precip. -- in
6:54 AM 8:04 PM
Waxing Crescent, 4% visible
Pressure 30.09 in
Visibility 10.0 miles
Clouds Clear
Heat Index 86 °F
Dew Point 66 °F
Humidity 56%
Rainfall 0.00 in
Snow Depth Not available.
UV 2 out of 12
Pollen 11.10 out of 12
Air Quality Not available.
Flu Activity Not available.
METAR KAAO 271354Z AUTO 29009KT 10SM CLR 27/18 A3013 RMK AO2 SLP188 T02670183

More Conditions Fewer Conditions

Pressure 30.09 in
Visibility 10.0 miles
Clouds Clear
Heat Index 86 °F
Dew Point 66 °F
Humidity 56%
Rainfall 0.00 in
Snow Depth Not available.
UV 2 out of 12
Pollen 11.10 out of 12
Air Quality Not available.
Flu Activity Not available.
METAR KAAO 271354Z AUTO 29009KT 10SM CLR 27/18 A3013 RMK AO2 SLP188 T02670183

More Conditions Fewer Conditions

10-Day Weather Forecast

Almanac

Astronomy

Aug. 27, 2014 Rise Set
Actual Time 6:54 AM CDT 8:04 PM CDT
Civil Twilight 6:27 AM CDT 8:31 PM CDT
Nautical Twilight 5:55 AM CDT 9:04 PM CDT
Astronomical Twilight 5:21 AM CDT 9:37 PM CDT
Moon 8:48 AM CDT 9:01 PM CDT
Length of Visible Light 14h 04m
Length of Day
13h 10m
Tomorrow will be 2m 18s shorter.
Waxing Crescent, 4% of the Moon is Illuminated
Today
Waxing Crescent
Sep 2
First Quarter
Sep 8
Full
Sep 15
Last Quarter
Sep 24
New

Today's Extremes

State Highs State Lows

Community

WunderPhotos

Upload Photos

1,747,701 photos uploaded!

Nearby

Snow Depth

Station Depth Elevation
No new snow has been reported.

Earthquake Activity

City Distance Mag. Time & Date
Guthrie, Oklahoma 129 miles 3.2 11:05 AM CDT
2014-08-26
Perry, Oklahoma 105 miles 2.5 8:07 AM CDT
2014-08-26
Medford, Oklahoma 70 miles 2.6 2:59 AM CDT
2014-08-26
Perry, Oklahoma 108 miles 3.2 4:41 PM CDT
2014-08-25
Minimum magnitude displayed is 2.5.

Coastal Water Temperatures

Place Temperature
No Stations Reporting

Nearby Weather Stations